createdAt,value
2022-11-15T00:00:58.082Z,99029.44
2022-11-15T00:03:27.142Z,99039.16
2022-11-15T00:05:54.587Z,99042.56
2022-11-15T00:08:21.440Z,99060.00
2022-11-15T00:10:59.442Z,99071.34
2022-11-15T00:13:27.012Z,99073.84
2022-11-15T00:15:53.962Z,99066.44
2022-11-15T00:18:20.715Z,99077.13
2022-11-15T00:20:47.554Z,99072.53
2022-11-15T00:23:14.339Z,99068.03
2022-11-15T00:25:41.469Z,99078.47
2022-11-15T00:28:08.391Z,99071.56
2022-11-15T00:30:35.874Z,99077.03
2022-11-15T00:33:04.986Z,99083.28
2022-11-15T00:35:36.022Z,99077.28
2022-11-15T00:38:03.558Z,99093.16
2022-11-15T00:40:30.754Z,99086.72
2022-11-15T00:42:58.146Z,99075.78
2022-11-15T00:45:25.800Z,99078.81
2022-11-15T00:47:53.233Z,99071.41
2022-11-15T00:50:20.424Z,99068.28
2022-11-15T00:52:47.231Z,99076.25
2022-11-15T00:55:18.110Z,99069.97
2022-11-15T00:57:45.276Z,99065.50
2022-11-15T01:00:13.025Z,99066.44
2022-11-15T01:02:39.909Z,99065.59
2022-11-15T01:05:07.435Z,99063.94
2022-11-15T01:07:34.471Z,99067.16
2022-11-15T01:10:01.258Z,99062.56
2022-11-15T01:12:28.073Z,99066.00
2022-11-15T01:14:55.526Z,99070.28
2022-11-15T01:17:22.367Z,99071.09
2022-11-15T01:19:49.148Z,99056.28
2022-11-15T01:22:16.518Z,99052.97
2022-11-15T01:24:43.294Z,99056.75
2022-11-15T01:27:10.215Z,99060.72
2022-11-15T01:29:37.036Z,99055.22
2022-11-15T01:32:03.981Z,99062.72
2022-11-15T01:34:30.692Z,99067.31
2022-11-15T01:36:57.498Z,99058.16
2022-11-15T01:39:24.210Z,99058.56
2022-11-15T01:41:50.924Z,99060.75
2022-11-15T01:44:29.764Z,99059.41
2022-11-15T01:46:56.759Z,99061.69
2022-11-15T01:49:25.280Z,99076.06
2022-11-15T01:51:53.011Z,99080.84
2022-11-15T01:54:22.575Z,99082.28
2022-11-15T01:56:54.560Z,99079.44
2022-11-15T01:59:21.826Z,99075.88
2022-11-15T02:01:48.732Z,99072.22
2022-11-15T02:04:20.067Z,99070.34
2022-11-15T02:06:48.138Z,99066.34
2022-11-15T02:09:15.139Z,99066.69
2022-11-15T02:11:42.781Z,99083.63
2022-11-15T02:14:11.832Z,99088.38
2022-11-15T02:17:00.752Z,99098.03
2022-11-15T02:19:57.676Z,99111.97
2022-11-15T02:23:15.238Z,99103.41
2022-11-15T02:26:19.540Z,99101.94
2022-11-15T02:29:21.810Z,99102.34
2022-11-15T02:32:05.885Z,99107.81
2022-11-15T02:34:44.487Z,99102.06
2022-11-15T02:37:16.649Z,99104.94
2022-11-15T02:39:51.316Z,99100.13
2022-11-15T02:42:53.933Z,99094.31
2022-11-15T02:45:28.744Z,99096.13
2022-11-15T02:47:57.873Z,99105.88
2022-11-15T02:50:28.424Z,99105.88
2022-11-15T02:52:56.157Z,99102.53
2022-11-15T02:55:33.449Z,99095.78
2022-11-15T02:58:37.543Z,99111.47
2022-11-15T03:01:22.325Z,99105.06
2022-11-15T03:04:07.766Z,99099.13
2022-11-15T03:06:43.396Z,99097.06
2022-11-15T03:09:32.366Z,99083.84
2022-11-15T03:12:09.316Z,99083.72
2022-11-15T03:14:42.000Z,99079.09
2022-11-15T03:17:31.684Z,99073.44
2022-11-15T03:20:02.226Z,99071.47
2022-11-15T03:22:32.211Z,99073.84
2022-11-15T03:25:03.407Z,99067.69
2022-11-15T03:27:36.751Z,99068.16
2022-11-15T03:30:07.498Z,99065.16
2022-11-15T03:32:41.426Z,99071.69
2022-11-15T03:35:12.900Z,99079.16
2022-11-15T03:37:42.284Z,99083.47
2022-11-15T03:40:10.065Z,99081.75
2022-11-15T03:43:11.613Z,99077.66
2022-11-15T03:45:48.693Z,99084.84
2022-11-15T03:48:22.747Z,99082.50
2022-11-15T03:50:50.096Z,99092.03
2022-11-15T03:53:16.890Z,99093.13
2022-11-15T03:55:43.928Z,99097.44
2022-11-15T03:58:10.744Z,99105.22
2022-11-15T04:00:37.520Z,99104.31
2022-11-15T04:03:04.464Z,99102.47
2022-11-15T04:05:31.238Z,99119.53
2022-11-15T04:07:57.933Z,99108.06
2022-11-15T04:10:24.839Z,99111.41
2022-11-15T04:12:51.602Z,99108.81
2022-11-15T04:15:22.346Z,99101.28
2022-11-15T04:17:55.090Z,99109.34
2022-11-15T04:20:44.295Z,99101.88
2022-11-15T04:23:32.908Z,99100.31
2022-11-15T04:26:03.235Z,99098.72
2022-11-15T04:28:30.144Z,99098.88
2022-11-15T04:30:57.080Z,99099.06
2022-11-15T04:33:24.484Z,99118.06
2022-11-15T04:36:11.898Z,99104.53
2022-11-15T04:38:38.748Z,99118.06
2022-11-15T04:41:05.605Z,99118.91
2022-11-15T04:43:32.803Z,99128.44
2022-11-15T04:45:59.830Z,99120.75
2022-11-15T04:48:26.555Z,99129.34
2022-11-15T04:50:53.322Z,99131.03
2022-11-15T04:53:19.992Z,99127.53
2022-11-15T04:55:47.402Z,99123.19
2022-11-15T04:58:14.560Z,99121.41
2022-11-15T05:00:41.384Z,99120.59
2022-11-15T05:03:29.074Z,99123.03
2022-11-15T05:05:56.097Z,99123.84
2022-11-15T05:08:22.905Z,99114.41
2022-11-15T05:10:49.615Z,99116.97
2022-11-15T05:13:16.359Z,99123.91
2022-11-15T05:15:43.121Z,99126.59
2022-11-15T05:18:10.116Z,99123.25
2022-11-15T05:20:36.877Z,99118.06
2022-11-15T05:23:03.807Z,99119.09
2022-11-15T05:25:30.663Z,99124.34
2022-11-15T05:27:57.532Z,99123.56
2022-11-15T05:30:24.382Z,99119.31
2022-11-15T05:32:51.748Z,99116.81
2022-11-15T05:35:41.528Z,99128.94
2022-11-15T05:38:08.721Z,99122.81
2022-11-15T05:40:35.875Z,99119.91
2022-11-15T05:43:05.711Z,99118.66
2022-11-15T05:45:34.857Z,99111.50
2022-11-15T05:48:05.160Z,99113.19
2022-11-15T05:50:32.127Z,99108.06
2022-11-15T05:53:04.616Z,99105.56
2022-11-15T05:55:32.776Z,99103.81
2022-11-15T05:57:59.641Z,99108.00
2022-11-15T06:00:26.453Z,99107.06
2022-11-15T06:02:53.137Z,99097.97
2022-11-15T06:05:19.893Z,99103.88
2022-11-15T06:07:46.586Z,99099.81
2022-11-15T06:10:13.369Z,99094.78
2022-11-15T06:12:40.133Z,99102.53
2022-11-15T06:15:07.366Z,99105.22
2022-11-15T06:17:34.067Z,99103.28
2022-11-15T06:20:00.854Z,99104.97
2022-11-15T06:22:27.596Z,99112.06
2022-11-15T06:24:54.342Z,99106.47
2022-11-15T06:27:21.144Z,99108.63
2022-11-15T06:29:47.812Z,99106.69
2022-11-15T06:32:14.509Z,99108.44
2022-11-15T06:34:41.254Z,99107.75
2022-11-15T06:37:07.969Z,99102.81
2022-11-15T06:39:34.698Z,99121.84
2022-11-15T06:42:01.407Z,99125.34
2022-11-15T06:44:28.197Z,99122.00
2022-11-15T06:46:54.944Z,99122.16
2022-11-15T06:49:21.762Z,99121.34
2022-11-15T06:51:48.452Z,99122.31
2022-11-15T06:54:15.223Z,99110.31
2022-11-15T06:56:41.936Z,99111.16
2022-11-15T06:59:08.663Z,99108.72
2022-11-15T07:01:35.685Z,99110.63
2022-11-15T07:04:02.489Z,99107.34
2022-11-15T07:06:29.227Z,99101.59
2022-11-15T07:08:56.135Z,99104.53
2022-11-15T07:11:22.865Z,99105.00
2022-11-15T07:13:49.588Z,99108.00
2022-11-15T07:16:16.575Z,99098.97
2022-11-15T07:18:43.286Z,99099.03
2022-11-15T07:21:12.225Z,99096.44
2022-11-15T07:23:39.874Z,99100.59
2022-11-15T07:26:07.135Z,99103.66
2022-11-15T07:28:34.566Z,99094.91
2022-11-15T07:31:05.552Z,99101.97
2022-11-15T07:33:32.970Z,99098.78
2022-11-15T07:36:05.066Z,99101.28
2022-11-15T07:38:32.548Z,99084.97
2022-11-15T07:41:04.915Z,99101.47
2022-11-15T07:43:34.210Z,99099.25
2022-11-15T07:46:07.080Z,99102.16
2022-11-15T07:48:43.276Z,99100.69
2022-11-15T07:51:38.111Z,99092.94
2022-11-15T07:54:04.847Z,99084.63
2022-11-15T07:56:31.671Z,99089.97
2022-11-15T07:58:58.819Z,99094.84
2022-11-15T08:01:25.615Z,99093.78
2022-11-15T08:03:52.435Z,99093.63
2022-11-15T08:06:19.293Z,99092.56
2022-11-15T08:08:48.441Z,99089.53
2022-11-15T08:11:15.151Z,99085.63
2022-11-15T08:13:41.907Z,99088.22
2022-11-15T08:16:09.587Z,99098.50
2022-11-15T08:18:36.320Z,99087.25
2022-11-15T08:21:03.364Z,99086.09
2022-11-15T08:23:30.882Z,99091.03
2022-11-15T08:26:05.358Z,99091.25
2022-11-15T08:28:33.318Z,99101.53
2022-11-15T08:31:00.198Z,99099.84
2022-11-15T08:33:27.228Z,99100.63
2022-11-15T08:35:58.341Z,99103.72
2022-11-15T08:38:25.331Z,99106.16
2022-11-15T08:40:54.596Z,99107.75
2022-11-15T08:43:21.417Z,99104.94
2022-11-15T08:45:48.128Z,99096.97
2022-11-15T08:48:14.829Z,99088.19
2022-11-15T08:50:41.707Z,99087.22
2022-11-15T08:53:09.605Z,99085.41
2022-11-15T08:55:41.542Z,99089.59
2022-11-15T08:58:08.295Z,99080.66
2022-11-15T09:00:35.186Z,99080.69
2022-11-15T09:03:06.192Z,99093.78
2022-11-15T09:05:33.401Z,99085.56
2022-11-15T09:08:00.128Z,99073.81
2022-11-15T09:10:26.891Z,99067.22
2022-11-15T09:12:53.572Z,99071.84
2022-11-15T09:15:20.887Z,99059.19
2022-11-15T09:17:47.919Z,99061.59
2022-11-15T09:20:14.892Z,99060.34
2022-11-15T09:22:41.728Z,99052.41
2022-11-15T09:25:11.143Z,99052.41
2022-11-15T09:27:38.116Z,99061.00
2022-11-15T09:30:05.448Z,99053.06
2022-11-15T09:32:37.852Z,99058.81
2022-11-15T09:35:06.157Z,99047.28
2022-11-15T09:37:33.499Z,99052.09
2022-11-15T09:40:00.206Z,99052.28
2022-11-15T09:42:54.613Z,99043.63
2022-11-15T09:45:44.110Z,99030.31
2022-11-15T09:48:26.322Z,99024.34
2022-11-15T09:50:59.813Z,99018.81
2022-11-15T09:56:52.863Z,99032.81
2022-11-15T09:59:34.730Z,99032.97
2022-11-15T10:02:05.193Z,99044.75
2022-11-15T10:04:32.904Z,99046.06
2022-11-15T10:07:13.635Z,99028.44
2022-11-15T10:10:04.353Z,99027.63
2022-11-15T10:12:32.379Z,99027.44
2022-11-15T10:15:06.737Z,99011.25
2022-11-15T10:18:06.990Z,99011.97
2022-11-15T10:20:49.054Z,99008.28
2022-11-15T10:23:20.546Z,98989.81
2022-11-15T10:25:47.643Z,98996.81
2022-11-15T10:28:16.271Z,98995.06
2022-11-15T10:30:47.026Z,98989.16
2022-11-15T10:33:36.272Z,98990.59
2022-11-15T10:36:14.791Z,98976.47
2022-11-15T10:38:50.575Z,98981.94
2022-11-15T10:41:18.764Z,98982.66
2022-11-15T10:43:46.913Z,98980.31
2022-11-15T10:46:45.550Z,98979.47
2022-11-15T10:49:19.676Z,98982.16
2022-11-15T10:51:50.650Z,98980.03
2022-11-15T10:54:42.696Z,98979.91
2022-11-15T10:57:16.175Z,98989.41
2022-11-15T10:59:52.363Z,98981.47
2022-11-15T11:02:48.581Z,98978.34
2022-11-15T11:05:41.392Z,98968.97
2022-11-15T11:08:12.182Z,98968.63
2022-11-15T11:11:01.419Z,98964.69
2022-11-15T11:13:38.259Z,98957.53
2022-11-15T11:16:49.382Z,98951.84
2022-11-15T11:19:58.426Z,98954.22
2022-11-15T11:22:39.956Z,98949.44
2022-11-15T11:25:25.306Z,98945.63
2022-11-15T11:28:26.155Z,98941.94
2022-11-15T11:31:11.913Z,98938.31
2022-11-15T11:33:44.615Z,98933.56
2022-11-15T11:36:28.088Z,98919.78
2022-11-15T11:39:35.120Z,98913.72
2022-11-15T11:42:35.713Z,98919.44
2022-11-15T11:45:13.356Z,98920.84
2022-11-15T11:48:01.465Z,98912.63
2022-11-15T11:50:29.202Z,98904.56
2022-11-15T11:53:43.582Z,98904.78
2022-11-15T11:56:23.275Z,98898.59
2022-11-15T11:58:54.211Z,98898.09
2022-11-15T12:01:33.531Z,98904.16
2022-11-15T12:04:11.392Z,98894.22
2022-11-15T12:06:46.954Z,98892.88
2022-11-15T12:09:38.334Z,98888.97
2022-11-15T12:12:35.648Z,98892.41
2022-11-15T12:15:12.146Z,98888.00
2022-11-15T12:17:42.022Z,98887.63
2022-11-15T12:20:24.145Z,98889.69
2022-11-15T12:23:07.083Z,98883.94
2022-11-15T12:25:47.276Z,98881.50
2022-11-15T12:28:36.564Z,98881.00
2022-11-15T12:31:12.628Z,98881.88
2022-11-15T12:33:45.225Z,98882.31
2022-11-15T12:36:23.968Z,98885.38
2022-11-15T12:39:01.333Z,98885.16
2022-11-15T12:41:49.697Z,98883.97
2022-11-15T12:44:32.206Z,98876.56
2022-11-15T12:46:59.041Z,98874.25
2022-11-15T12:49:28.747Z,98860.13
2022-11-15T12:51:58.734Z,98850.75
2022-11-15T12:54:25.460Z,98851.75
2022-11-15T12:57:04.395Z,98856.88
2022-11-15T12:59:49.712Z,98857.44
2022-11-15T13:02:22.889Z,98846.25
2022-11-15T13:04:51.928Z,98842.19
2022-11-15T13:07:37.103Z,98839.72
2022-11-15T13:10:12.931Z,98831.03
2022-11-15T13:12:42.715Z,98825.78
2022-11-15T13:15:18.433Z,98822.38
2022-11-15T13:17:49.019Z,98816.31
2022-11-15T13:20:15.728Z,98800.72
2022-11-15T13:22:52.452Z,98802.00
2022-11-15T13:25:37.311Z,98798.50
2022-11-15T13:28:17.316Z,98798.19
2022-11-15T13:31:00.429Z,98794.16
2022-11-15T13:33:36.356Z,98790.72
2022-11-15T13:36:25.235Z,98793.75
2022-11-15T13:39:00.198Z,98788.41
2022-11-15T13:41:33.424Z,98790.03
2022-11-15T13:44:02.286Z,98781.22
2022-11-15T13:46:31.160Z,98789.50
2022-11-15T13:49:02.557Z,98783.69
2022-11-15T13:51:35.016Z,98773.44
2022-11-15T13:54:10.635Z,98780.31
2022-11-15T13:56:38.418Z,98770.66
2022-11-15T13:59:31.152Z,98768.69
2022-11-15T14:02:04.931Z,98774.25
2022-11-15T14:04:34.929Z,98764.53
2022-11-15T14:07:03.233Z,98768.94
2022-11-15T14:09:36.810Z,98771.69
2022-11-15T14:12:32.908Z,98757.22
2022-11-15T14:15:01.580Z,98743.47
2022-11-15T14:17:30.983Z,98741.38
2022-11-15T14:20:01.534Z,98723.22
2022-11-15T14:22:30.769Z,98722.94
2022-11-15T14:25:28.719Z,98730.66
2022-11-15T14:28:13.448Z,98729.41
2022-11-15T14:30:41.720Z,98736.19
2022-11-15T14:33:31.911Z,98723.06
2022-11-15T14:36:03.618Z,98717.00
2022-11-15T14:38:31.041Z,98711.66
2022-11-15T14:40:58.536Z,98710.00
2022-11-15T14:43:25.366Z,98706.28
2022-11-15T14:45:52.186Z,98701.56
2022-11-15T14:48:19.024Z,98705.13
2022-11-15T14:50:45.925Z,98708.16
2022-11-15T14:53:19.991Z,98704.03
2022-11-15T14:55:46.898Z,98699.50
2022-11-15T14:58:13.648Z,98698.81
2022-11-15T15:00:42.433Z,98692.88
2022-11-15T15:03:09.978Z,98685.28
2022-11-15T15:05:40.141Z,98680.81
2022-11-15T15:08:07.529Z,98675.97
2022-11-15T15:10:40.485Z,98679.13
2022-11-15T15:13:21.281Z,98678.78
2022-11-15T15:15:48.700Z,98670.78
2022-11-15T15:18:16.582Z,98670.34
2022-11-15T15:20:46.709Z,98672.75
2022-11-15T15:23:18.552Z,98680.31
2022-11-15T15:25:46.754Z,98680.00
2022-11-15T15:28:14.321Z,98676.38
2022-11-15T15:30:41.551Z,98673.69
2022-11-15T15:33:08.400Z,98667.31
2022-11-15T15:35:36.340Z,98674.38
2022-11-15T15:38:04.401Z,98665.97
2022-11-15T15:40:33.763Z,98663.03
2022-11-15T15:43:01.103Z,98666.47
2022-11-15T15:45:28.711Z,98668.81
2022-11-15T15:47:55.725Z,98658.78
2022-11-15T15:50:29.733Z,98661.06
2022-11-15T15:52:58.699Z,98664.16
2022-11-15T15:55:26.123Z,98662.06
2022-11-15T15:57:53.044Z,98656.88
2022-11-15T16:00:21.450Z,98662.47
2022-11-15T16:02:48.412Z,98655.72
2022-11-15T16:05:15.326Z,98658.00
2022-11-15T16:07:44.385Z,98659.31
2022-11-15T16:10:22.354Z,98647.84
2022-11-15T16:12:49.805Z,98648.91
2022-11-15T16:15:16.999Z,98638.16
2022-11-15T16:17:50.452Z,98634.50
2022-11-15T16:20:45.500Z,98636.16
2022-11-15T16:23:17.393Z,98636.88
2022-11-15T16:25:51.004Z,98640.16
2022-11-15T16:28:19.046Z,98627.84
2022-11-15T16:30:46.103Z,98631.88
2022-11-15T16:33:12.963Z,98630.66
2022-11-15T16:35:39.680Z,98623.41
2022-11-15T16:38:06.549Z,98625.66
2022-11-15T16:40:36.143Z,98629.94
2022-11-15T16:43:04.605Z,98634.06
2022-11-15T16:45:32.021Z,98625.56
2022-11-15T16:47:58.876Z,98615.81
2022-11-15T16:50:29.412Z,98613.31
2022-11-15T16:52:58.510Z,98620.56
2022-11-15T16:55:29.861Z,98614.91
2022-11-15T16:57:58.187Z,98611.72
2022-11-15T17:00:26.158Z,98624.06
2022-11-15T17:02:53.442Z,98619.19
2022-11-15T17:05:23.296Z,98618.75
2022-11-15T17:07:54.358Z,98617.47
2022-11-15T17:10:26.131Z,98619.59
2022-11-15T17:12:55.341Z,98621.75
2022-11-15T17:15:22.513Z,98612.06
2022-11-15T17:17:54.051Z,98620.13
2022-11-15T17:20:23.375Z,98607.56
2022-11-15T17:22:50.601Z,98605.22
2022-11-15T17:25:17.526Z,98607.09
2022-11-15T17:27:44.398Z,98599.66
2022-11-15T17:30:15.408Z,98600.94
2022-11-15T17:32:43.423Z,98589.00
2022-11-15T17:35:15.563Z,98581.41
2022-11-15T17:37:43.530Z,98576.56
2022-11-15T17:40:10.850Z,98580.34
2022-11-15T17:42:37.610Z,98584.16
2022-11-15T17:45:09.704Z,98573.16
2022-11-15T17:47:37.265Z,98565.00
2022-11-15T17:50:04.612Z,98564.28
2022-11-15T17:52:31.413Z,98555.75
2022-11-15T17:54:58.155Z,98565.94
2022-11-15T17:57:24.914Z,98560.03
2022-11-15T17:59:51.614Z,98565.34
2022-11-15T18:02:19.546Z,98570.78
2022-11-15T18:04:46.244Z,98571.16
2022-11-15T18:07:14.345Z,98575.88
2022-11-15T18:09:44.120Z,98570.19
2022-11-15T18:12:11.847Z,98563.44
2022-11-15T18:14:38.702Z,98564.75
2022-11-15T18:17:05.425Z,98562.25
2022-11-15T18:19:32.126Z,98558.47
2022-11-15T18:22:04.454Z,98552.44
2022-11-15T18:24:34.914Z,98562.03
2022-11-15T18:27:03.666Z,98562.25
2022-11-15T18:29:30.846Z,98561.66
2022-11-15T18:31:59.007Z,98566.28
2022-11-15T18:34:32.135Z,98560.25
2022-11-15T18:37:00.212Z,98563.19
2022-11-15T18:39:26.899Z,98559.28
2022-11-15T18:41:53.666Z,98557.38
2022-11-15T18:44:20.477Z,98556.88
2022-11-15T18:46:47.260Z,98556.19
2022-11-15T18:49:16.865Z,98554.50
2022-11-15T18:51:44.085Z,98556.25
2022-11-15T18:54:13.420Z,98550.97
2022-11-15T18:56:41.002Z,98548.38
2022-11-15T18:59:08.892Z,98558.66
2022-11-15T19:01:38.235Z,98557.97
2022-11-15T19:04:17.759Z,98552.84
2022-11-15T19:06:47.026Z,98559.22
2022-11-15T19:09:16.318Z,98561.09
2022-11-15T19:11:44.782Z,98563.94
2022-11-15T19:14:14.066Z,98552.69
2022-11-15T19:16:44.935Z,98552.19
2022-11-15T19:19:17.526Z,98546.88
2022-11-15T19:21:44.976Z,98559.28
2022-11-15T19:24:11.903Z,98562.00
2022-11-15T19:26:39.287Z,98561.06
2022-11-15T19:29:07.894Z,98558.56
2022-11-15T19:31:34.656Z,98550.41
2022-11-15T19:34:04.656Z,98559.16
2022-11-15T19:36:34.937Z,98555.00
2022-11-15T19:39:05.329Z,98560.31
2022-11-15T19:41:32.543Z,98562.09
2022-11-15T19:43:59.345Z,98557.94
2022-11-15T19:46:27.090Z,98560.03
2022-11-15T19:48:54.389Z,98561.22
2022-11-15T19:51:24.674Z,98558.84
2022-11-15T19:53:56.548Z,98557.19
2022-11-15T19:56:24.061Z,98553.84
2022-11-15T19:58:53.110Z,98549.41
2022-11-15T20:01:31.765Z,98546.78
2022-11-15T20:03:59.987Z,98542.63
2022-11-15T20:06:39.448Z,98537.56
2022-11-15T20:09:06.306Z,98526.66
2022-11-15T20:11:34.328Z,98531.84
2022-11-15T20:14:02.407Z,98530.22
2022-11-15T20:16:29.453Z,98523.56
2022-11-15T20:18:56.284Z,98522.84
2022-11-15T20:21:24.310Z,98518.63
2022-11-15T20:23:52.014Z,98522.84
2022-11-15T20:26:21.976Z,98524.53
2022-11-15T20:28:48.930Z,98529.50
2022-11-15T20:31:16.872Z,98533.16
2022-11-15T20:33:43.714Z,98529.63
2022-11-15T20:36:13.006Z,98530.44
2022-11-15T20:38:40.333Z,98528.66
2022-11-15T20:41:07.307Z,98523.34
2022-11-15T20:43:34.179Z,98520.75
2022-11-15T20:46:02.323Z,98516.72
2022-11-15T20:48:29.211Z,98516.63
2022-11-15T20:51:11.653Z,98510.16
2022-11-15T20:53:38.728Z,98514.63
2022-11-15T20:56:27.543Z,98510.16
2022-11-15T20:58:54.927Z,98509.06
2022-11-15T21:01:24.400Z,98506.25
2022-11-15T21:03:56.882Z,98506.97
2022-11-15T21:06:26.305Z,98504.25
2022-11-15T21:09:12.837Z,98485.75
2022-11-15T21:11:59.237Z,98484.34
2022-11-15T21:14:26.176Z,98492.84
2022-11-15T21:16:53.018Z,98490.94
2022-11-15T21:19:24.106Z,98490.84
2022-11-15T21:21:55.215Z,98481.28
2022-11-15T21:24:22.352Z,98475.97
2022-11-15T21:26:49.244Z,98473.97
2022-11-15T21:29:17.469Z,98473.22
2022-11-15T21:31:45.448Z,98472.19
2022-11-15T21:34:12.179Z,98458.97
2022-11-15T21:36:38.966Z,98464.16
2022-11-15T21:39:05.997Z,98468.66
2022-11-15T21:41:33.173Z,98469.81
2022-11-15T21:44:01.091Z,98460.72
2022-11-15T21:46:29.422Z,98462.00
2022-11-15T21:48:57.062Z,98458.81
2022-11-15T21:51:24.643Z,98460.31
2022-11-15T21:53:55.830Z,98459.97
2022-11-15T21:56:22.978Z,98460.28
2022-11-15T21:58:49.856Z,98463.09
2022-11-15T22:01:35.277Z,98458.88
2022-11-15T22:04:02.158Z,98457.91
2022-11-15T22:06:28.988Z,98456.50
2022-11-15T22:08:55.753Z,98463.91
2022-11-15T22:11:22.642Z,98461.38
2022-11-15T22:13:49.456Z,98461.09
2022-11-15T22:16:16.341Z,98467.44
2022-11-15T22:18:43.285Z,98472.63
2022-11-15T22:21:12.562Z,98479.41
2022-11-15T22:23:40.266Z,98462.03
2022-11-15T22:26:08.384Z,98477.63
2022-11-15T22:28:35.464Z,98469.94
2022-11-15T22:31:02.825Z,98466.94
2022-11-15T22:33:31.967Z,98470.81
2022-11-15T22:35:59.058Z,98477.28
2022-11-15T22:38:26.924Z,98470.88
2022-11-15T22:40:53.972Z,98472.78
2022-11-15T22:43:22.852Z,98470.03
2022-11-15T22:45:49.713Z,98477.44
2022-11-15T22:48:17.377Z,98479.66
2022-11-15T22:50:44.775Z,98473.59
2022-11-15T22:53:12.062Z,98466.59
2022-11-15T22:55:42.197Z,98476.16
2022-11-15T22:58:09.055Z,98481.75
2022-11-15T23:00:36.275Z,98474.41
2022-11-15T23:03:03.802Z,98467.25
2022-11-15T23:05:30.539Z,98468.91
2022-11-15T23:07:57.827Z,98467.16
2022-11-15T23:10:43.531Z,98468.09
2022-11-15T23:13:16.309Z,98469.97
2022-11-15T23:16:03.550Z,98470.28
2022-11-15T23:18:34.724Z,98467.91
2022-11-15T23:21:08.207Z,98472.16
2022-11-15T23:23:35.932Z,98473.09
2022-11-15T23:26:02.814Z,98475.78
2022-11-15T23:28:30.073Z,98473.72
2022-11-15T23:31:21.741Z,98475.59
2022-11-15T23:33:57.677Z,98477.06
2022-11-15T23:36:26.852Z,98474.97
2022-11-15T23:38:54.176Z,98476.00
2022-11-15T23:41:22.128Z,98476.44
2022-11-15T23:43:48.945Z,98481.81
2022-11-15T23:46:16.144Z,98483.59
2022-11-15T23:48:43.615Z,98484.78
2022-11-15T23:51:10.457Z,98485.63
2022-11-15T23:53:37.534Z,98479.28
2022-11-15T23:56:12.731Z,98481.16
2022-11-15T23:58:39.913Z,98480.03
